Time;durP1;ratioP1;P1;durP2;ratioP2;P2;SDS_P1;SDS_P2;PMS_P1;PMS_P2;Temp;Humidity;BMP_temperature;BMP_pressure;BME280_temperature;BME280_humidity;BME280_pressure;Samples;Min_cycle;Max_cycle;Signal;HPM_P1;HPM_P2
2021/08/17 08:16:04;;;;;;;51.15;21.13;;;14.20;99.90;;;;;;5070792;28;20675;-67
2021/08/17 08:18:29;;;;;;;51.85;21.67;;;14.30;99.90;;;;;;5070654;28;20183;-67
2021/08/17 08:20:55;;;;;;;55.47;22.90;;;14.40;99.90;;;;;;5069407;28;20175;-67
2021/08/17 08:23:20;;;;;;;50.03;21.45;;;14.40;99.90;;;;;;5070538;28;20248;-67
2021/08/17 08:25:46;;;;;;;44.25;21.48;;;14.40;99.90;;;;;;5070589;28;20575;-67
2021/08/17 08:28:11;;;;;;;49.28;20.48;;;14.40;99.90;;;;;;5069304;28;20170;-67
2021/08/17 08:30:37;;;;;;;51.70;22.60;;;14.50;99.90;;;;;;5070481;28;20177;-67
2021/08/17 08:33:03;;;;;;;46.58;19.63;;;14.50;99.90;;;;;;5069196;28;20704;-67
2021/08/17 08:35:29;;;;;;;43.17;19.15;;;14.50;99.90;;;;;;5070356;28;20283;-67
2021/08/17 08:37:56;;;;;;;44.75;19.23;;;14.60;99.90;;;;;;5070409;28;20191;-67
2021/08/17 08:40:24;;;;;;;42.80;18.75;;;14.60;99.90;;;;;;5070281;28;20244;-67
2021/08/17 08:42:51;;;;;;;51.15;18.95;;;14.60;99.90;;;;;;5070292;28;20247;-68
2021/08/17 08:45:17;;;;;;;41.60;17.25;;;14.60;99.90;;;;;;5068963;28;20258;-68
2021/08/17 08:47:43;;;;;;;46.42;18.67;;;14.60;99.90;;;;;;5068949;28;20226;-68
2021/08/17 08:50:10;;;;;;;43.28;18.50;;;14.70;99.90;;;;;;5070060;28;20511;-68
2021/08/17 08:52:36;;;;;;;48.80;16.83;;;14.70;99.90;;;;;;5069994;28;20751;-68
2021/08/17 08:55:04;;;;;;;35.65;15.98;;;14.70;99.90;;;;;;5069944;28;20285;-69
2021/08/17 08:57:30;;;;;;;42.25;18.13;;;14.90;99.90;;;;;;5069948;28;20630;-68
2021/08/17 08:59:56;;;;;;;38.78;16.77;;;14.90;99.90;;;;;;5068632;28;20176;-68
2021/08/17 09:02:27;;;;;;;38.53;17.65;;;14.90;99.90;;;;;;5069788;28;20223;-68
2021/08/17 09:04:55;;;;;;;59.85;19.50;;;14.80;99.90;;;;;;5069745;28;20175;-68
2021/08/17 09:07:39;;;;;;;42.22;18.13;;;15.00;99.90;;;;;;5069624;28;20193;-68
2021/08/17 09:10:15;;;;;;;48.90;19.50;;;14.90;99.90;;;;;;5069686;28;20584;-68
2021/08/17 09:12:42;;;;;;;41.65;18.80;;;15.00;99.90;;;;;;5069672;28;20664;-68
2021/08/17 09:15:12;;;;;;;37.17;17.77;;;15.00;99.90;;;;;;5067986;28;20307;-68
2021/08/17 09:17:40;;;;;;;36.40;17.27;;;15.10;99.90;;;;;;5069507;28;20199;-68
2021/08/17 09:20:08;;;;;;;42.30;17.02;;;15.10;99.90;;;;;;5069454;28;20169;-68
2021/08/17 09:22:34;;;;;;;33.17;17.02;;;15.00;99.90;;;;;;5069381;28;20556;-68
2021/08/17 09:25:03;;;;;;;30.83;15.68;;;14.90;99.90;;;;;;5069313;28;20172;-68
2021/08/17 09:27:34;;;;;;;33.80;16.45;;;14.90;99.90;;;;;;5055919;28;20178;-68
2021/08/17 09:30:12;;;;;;;36.83;15.93;;;14.90;99.90;;;;;;5056023;28;20227;-68
2021/08/17 09:32:54;;;;;;;31.48;13.85;;;14.90;99.90;;;;;;5055967;28;20172;-68
2021/08/17 09:35:21;;;;;;;27.83;15.18;;;14.90;99.90;;;;;;5055952;28;20205;-68
2021/08/17 09:38:08;;;;;;;34.22;14.57;;;14.90;99.90;;;;;;5055898;28;20191;-68
2021/08/17 09:40:34;;;;;;;33.28;14.70;;;14.80;99.90;;;;;;5055893;28;20272;-68
2021/08/17 09:43:20;;;;;;;27.85;13.85;;;14.80;99.90;;;;;;5054457;28;20222;-68
2021/08/17 09:45:47;;;;;;;24.83;14.10;;;14.80;99.90;;;;;;5055939;28;20177;-68
2021/08/17 09:48:16;;;;;;;24.50;12.75;;;14.80;99.90;;;;;;5054466;28;20536;-68
2021/08/17 09:50:43;;;;;;;27.60;13.60;;;14.80;99.90;;;;;;5055652;28;20169;-68
2021/08/17 09:53:21;;;;;;;28.73;11.82;;;14.90;99.90;;;;;;5055652;28;20587;-68
2021/08/17 09:55:51;;;;;;;24.77;11.95;;;15.00;99.90;;;;;;5055549;28;20228;-69
2021/08/17 09:58:30;;;;;;;24.40;11.98;;;15.20;99.90;;;;;;5055591;28;20634;-68
2021/08/17 10:00:58;;;;;;;29.13;11.30;;;15.30;99.90;;;;;;5054249;28;20180;-68
2021/08/17 10:03:26;;;;;;;24.02;11.90;;;15.50;99.90;;;;;;5055528;28;20173;-69
2021/08/17 10:05:52;;;;;;;28.85;12.02;;;15.60;99.90;;;;;;5055355;28;20239;-69
2021/08/17 10:08:18;;;;;;;27.77;12.93;;;15.80;99.90;;;;;;5055354;28;20642;-68
2021/08/17 10:10:46;;;;;;;19.83;11.52;;;15.80;99.90;;;;;;5055312;28;20176;-68
2021/08/17 10:13:14;;;;;;;18.85;10.35;;;15.80;99.90;;;;;;5055225;28;20243;-68
2021/08/17 10:15:42;;;;;;;22.80;11.55;;;15.60;99.90;;;;;;5055039;28;20619;-68
2021/08/17 10:18:09;;;;;;;24.60;10.90;;;15.50;99.90;;;;;;5055161;28;20161;-68
2021/08/17 10:20:38;;;;;;;17.33;10.93;;;15.40;99.90;;;;;;5055095;28;20172;-68
2021/08/17 10:23:04;;;;;;;26.63;11.85;;;15.30;99.90;;;;;;5055111;28;20170;-68
2021/08/17 10:26:01;;;;;;;21.73;11.82;;;15.20;99.90;;;;;;5055045;28;20169;-68
2021/08/17 10:28:34;;;;;;;24.17;12.30;;;15.20;99.90;;;;;;5055036;28;20161;-68
2021/08/17 10:31:12;;;;;;;20.73;11.15;;;15.20;99.90;;;;;;5054938;28;20166;-68
2021/08/17 10:33:54;;;;;;;28.50;11.60;;;15.20;99.90;;;;;;5054915;28;20172;-68
2021/08/17 10:36:41;;;;;;;19.02;10.98;;;15.30;99.90;;;;;;5054832;28;20177;-68
2021/08/17 10:39:27;;;;;;;22.92;12.02;;;15.20;99.90;;;;;;5053878;28;20686;-68
2021/08/17 10:41:54;;;;;;;19.50;10.88;;;15.00;99.90;;;;;;5054758;28;20526;-68
2021/08/17 10:44:30;;;;;;;29.27;13.02;;;15.00;99.90;;;;;;5054779;28;20164;-68
2021/08/17 10:46:59;;;;;;;24.35;12.85;;;15.10;99.90;;;;;;5054602;28;20169;-68
2021/08/17 10:49:30;;;;;;;21.48;11.38;;;15.20;99.90;;;;;;5054672;28;20181;-68
2021/08/17 10:52:00;;;;;;;21.55;12.75;;;15.20;99.90;;;;;;5053286;28;20274;-68
2021/08/17 10:54:26;;;;;;;21.15;10.35;;;15.40;99.90;;;;;;5054433;28;20208;-68
2021/08/17 10:56:52;;;;;;;26.48;12.05;;;15.50;99.90;;;;;;5054435;28;20443;-68
2021/08/17 10:59:38;;;;;;;19.45;11.18;;;15.70;99.90;;;;;;5054856;28;20204;-68
2021/08/17 11:02:04;;;;;;;21.25;12.02;;;15.70;99.90;;;;;;5054399;28;20706;-68
2021/08/17 11:04:41;;;;;;;19.27;11.30;;;15.80;99.90;;;;;;5054340;28;20200;-69
2021/08/17 11:07:27;;;;;;;17.73;11.20;;;15.90;99.90;;;;;;5052952;28;20207;-68
2021/08/17 11:09:54;;;;;;;24.58;12.43;;;15.80;99.90;;;;;;5054282;28;20173;-68
2021/08/17 11:12:20;;;;;;;25.05;12.30;;;15.80;99.90;;;;;;5054160;28;20169;-68
2021/08/17 11:14:47;;;;;;;25.98;11.23;;;15.70;99.90;;;;;;5053832;28;20697;-68
2021/08/17 11:17:15;;;;;;;28.10;13.35;;;15.70;99.90;;;;;;5054190;28;20165;-69
2021/08/17 11:19:47;;;;;;;25.02;12.00;;;15.70;99.90;;;;;;5054097;28;20161;-68
2021/08/17 11:22:24;;;;;;;16.98;10.77;;;15.80;99.90;;;;;;5054121;28;20170;-69
2021/08/17 11:24:54;;;;;;;20.13;10.02;;;15.70;99.90;;;;;;5053971;28;20199;-69
2021/08/17 11:27:36;;;;;;;22.35;10.07;;;15.80;99.90;;;;;;5053893;28;20211;-68
2021/08/17 11:30:08;;;;;;;15.50;10.45;;;15.80;99.90;;;;;;5052609;28;20176;-68
2021/08/17 11:32:35;;;;;;;17.33;10.68;;;15.50;99.90;;;;;;5053744;28;20173;-68
2021/08/17 11:35:07;;;;;;;26.25;10.63;;;15.40;99.90;;;;;;5053692;28;20192;-68
2021/08/17 11:37:34;;;;;;;17.92;10.73;;;15.40;99.90;;;;;;5053890;28;20161;-68
2021/08/17 11:40:02;;;;;;;18.30;10.15;;;15.40;99.90;;;;;;5052595;28;20643;-68
2021/08/17 11:42:31;;;;;;;20.50;10.32;;;15.40;99.90;;;;;;5053654;28;20665;-68
2021/08/17 11:45:00;;;;;;;19.48;11.30;;;15.30;99.90;;;;;;5052528;28;20620;-68
2021/08/17 11:47:27;;;;;;;21.20;10.68;;;15.30;99.90;;;;;;5053477;28;20233;-68
2021/08/17 11:49:55;;;;;;;23.73;11.30;;;15.30;99.90;;;;;;5053277;28;20184;-68
2021/08/17 11:52:23;;;;;;;17.85;10.55;;;15.20;99.90;;;;;;5053532;28;20200;-68
2021/08/17 11:54:58;;;;;;;21.90;11.02;;;15.10;99.90;;;;;;5053410;28;20189;-69
2021/08/17 11:57:29;;;;;;;22.90;10.70;;;15.10;99.90;;;;;;5053433;28;20164;-69
2021/08/17 12:00:00;;;;;;;17.70;10.85;;;15.10;99.90;;;;;;5053381;28;20166;-69
2021/08/17 12:02:27;;;;;;;19.88;11.52;;;15.20;99.90;;;;;;5052312;28;20172;-69
2021/08/17 12:04:56;;;;;;;22.40;10.68;;;15.20;99.90;;;;;;5053556;28;20638;-68
2021/08/17 12:07:23;;;;;;;21.65;10.88;;;15.30;99.90;;;;;;5052050;28;20189;-68
2021/08/17 12:09:49;;;;;;;18.52;10.15;;;15.40;99.90;;;;;;5053327;28;20165;-69
2021/08/17 12:12:17;;;;;;;18.08;11.00;;;15.50;99.90;;;;;;5053161;28;20229;-68
2021/08/17 12:14:43;;;;;;;18.02;9.88;;;15.40;99.90;;;;;;5051750;28;20220;-68
2021/08/17 12:17:12;;;;;;;20.20;9.85;;;15.40;99.90;;;;;;5053134;28;20173;-68
2021/08/17 12:19:46;;;;;;;16.45;10.10;;;15.30;99.90;;;;;;5053161;28;20187;-68
2021/08/17 12:22:26;;;;;;;14.18;9.77;;;15.10;99.90;;;;;;5053167;28;20226;-69
2021/08/17 12:24:53;;;;;;;17.10;10.13;;;15.10;99.90;;;;;;5053055;28;20630;-69
2021/08/17 12:27:27;;;;;;;17.38;10.23;;;15.10;99.90;;;;;;5052998;28;20169;-68
2021/08/17 12:29:54;;;;;;;22.17;12.95;;;14.90;99.90;;;;;;5053153;28;20168;-69
2021/08/17 12:32:28;;;;;;;21.02;10.65;;;15.00;99.90;;;;;;5053106;28;20177;-69
2021/08/17 12:35:01;;;;;;;18.17;9.73;;;15.00;99.90;;;;;;5052998;28;20545;-68
2021/08/17 12:37:37;;;;;;;17.90;9.60;;;14.80;99.90;;;;;;5052977;28;20169;-68
2021/08/17 12:40:06;;;;;;;15.13;9.13;;;14.90;99.90;;;;;;5053071;28;20645;-68
2021/08/17 12:42:39;;;;;;;14.27;8.77;;;14.80;99.90;;;;;;5052964;28;20252;-68
2021/08/17 12:45:05;;;;;;;13.40;9.20;;;14.80;99.90;;;;;;5053060;28;20165;-69
2021/08/17 12:47:31;;;;;;;12.68;8.07;;;14.60;99.90;;;;;;5052905;28;20165;-69
2021/08/17 12:50:02;;;;;;;14.93;9.00;;;14.50;99.90;;;;;;5052824;28;20191;-68
2021/08/17 12:52:39;;;;;;;16.98;8.77;;;14.40;99.90;;;;;;5052885;28;20161;-69
2021/08/17 12:55:22;;;;;;;19.23;10.52;;;14.30;99.90;;;;;;5052977;28;20231;-69
2021/08/17 12:57:52;;;;;;;16.40;10.05;;;14.20;99.90;;;;;;5052834;28;20157;-69
2021/08/17 13:00:23;;;;;;;16.33;11.45;;;14.10;99.90;;;;;;5052947;28;20165;-69
2021/08/17 13:02:50;;;;;;;18.25;11.43;;;14.10;99.90;;;;;;5056424;28;20173;-69
2021/08/17 13:05:16;;;;;;;19.45;11.63;;;14.00;99.90;;;;;;5056599;28;20169;-68
2021/08/17 13:07:42;;;;;;;23.50;11.48;;;13.90;99.90;;;;;;5056519;28;20200;-69
2021/08/17 13:10:10;;;;;;;18.10;11.55;;;13.90;99.90;;;;;;5056447;28;20204;-69
2021/08/17 13:12:41;;;;;;;17.90;11.27;;;13.90;99.90;;;;;;5056426;28;20192;-68
2021/08/17 13:15:12;;;;;;;16.70;10.98;;;13.80;99.90;;;;;;5056186;28;20295;-69
2021/08/17 13:17:38;;;;;;;28.42;12.68;;;13.80;99.90;;;;;;5055028;28;20165;-69
2021/08/17 13:20:07;;;;;;;20.05;12.27;;;13.80;99.90;;;;;;5055021;28;20196;-68
2021/08/17 13:22:33;;;;;;;19.30;11.63;;;13.90;99.90;;;;;;5056220;28;20176;-68
2021/08/17 13:24:58;;;;;;;21.20;11.57;;;13.80;99.90;;;;;;5056128;28;20684;-68
2021/08/17 13:27:24;;;;;;;22.98;12.77;;;13.80;99.90;;;;;;5056184;28;20176;-68
2021/08/17 13:29:49;;;;;;;26.63;12.85;;;13.80;99.90;;;;;;5056091;28;20177;-68
2021/08/17 13:32:15;;;;;;;21.40;12.20;;;13.80;99.90;;;;;;5056081;28;20259;-68
2021/08/17 13:34:41;;;;;;;21.40;12.55;;;13.70;99.90;;;;;;5055983;28;20536;-68
2021/08/17 13:37:07;;;;;;;17.33;10.70;;;13.70;99.90;;;;;;5055957;28;20173;-69
2021/08/17 13:39:37;;;;;;;18.15;11.00;;;13.70;99.90;;;;;;5055954;28;20176;-68
2021/08/17 13:56:30;;;;;;;24.70;10.90;;;13.70;99.90;;;;;;5070888;28;20592;-68
2021/08/17 13:58:56;;;;;;;22.08;11.35;;;13.80;99.90;;;;;;5070799;28;20176;-68
2021/08/17 14:01:22;;;;;;;17.63;10.93;;;13.80;99.90;;;;;;5070713;28;20169;-68
2021/08/17 14:03:48;;;;;;;20.40;11.32;;;13.70;99.90;;;;;;5070658;28;20168;-68
2021/08/17 14:06:15;;;;;;;25.80;11.73;;;13.70;99.90;;;;;;5069297;28;20613;-69
2021/08/17 14:08:42;;;;;;;20.00;10.80;;;13.70;99.90;;;;;;5069285;28;20172;-68
2021/08/17 14:11:08;;;;;;;21.60;11.85;;;13.70;99.90;;;;;;5070449;28;20223;-68
2021/08/17 14:13:34;;;;;;;21.15;12.07;;;13.70;99.90;;;;;;5070473;28;20524;-69
2021/08/17 14:16:03;;;;;;;22.60;11.88;;;13.90;99.90;;;;;;5070236;28;20196;-69
2021/08/17 14:18:30;;;;;;;23.42;11.40;;;14.00;99.90;;;;;;5070297;28;20210;-69
2021/08/17 14:21:00;;;;;;;20.85;10.85;;;14.20;99.90;;;;;;5070235;28;20168;-69
2021/08/17 14:23:27;;;;;;;20.23;11.45;;;14.20;99.90;;;;;;5068816;28;20528;-69
2021/08/17 14:25:53;;;;;;;18.55;10.68;;;14.30;99.90;;;;;;5070091;28;20245;-69
2021/08/17 14:28:18;;;;;;;25.13;12.23;;;14.40;99.90;;;;;;5069785;28;20629;-69
2021/08/17 14:30:44;;;;;;;25.42;11.63;;;14.50;99.90;;;;;;5069496;28;20173;-69
2021/08/17 14:33:09;;;;;;;18.52;10.52;;;14.40;99.90;;;;;;5069933;28;20192;-69
2021/08/17 14:35:35;;;;;;;19.10;10.60;;;14.60;99.90;;;;;;5069894;28;20196;-69
2021/08/17 14:38:00;;;;;;;20.58;11.07;;;14.60;99.90;;;;;;5069932;28;20173;-69
2021/08/17 14:40:26;;;;;;;22.70;10.85;;;14.60;99.90;;;;;;5069525;28;20169;-69
2021/08/17 14:42:52;;;;;;;25.10;10.90;;;14.50;99.90;;;;;;5069405;28;20161;-69
2021/08/17 14:45:17;;;;;;;18.63;11.38;;;14.50;99.90;;;;;;5069925;28;20184;-69
2021/08/17 14:47:44;;;;;;;13.75;10.95;;;14.50;99.90;;;;;;5069663;28;20665;-69
2021/08/17 14:50:10;;;;;;;15.25;9.48;;;14.50;99.90;;;;;;5068394;28;20184;-69
2021/08/17 14:52:35;;;;;;;15.48;10.60;;;14.50;99.90;;;;;;5068884;28;20223;-69
2021/08/17 14:55:01;;;;;;;21.60;11.18;;;14.40;99.90;;;;;;5067971;28;20228;-69
2021/08/17 14:57:27;;;;;;;16.90;10.52;;;14.30;99.90;;;;;;5069517;28;20171;-69
2021/08/17 14:59:52;;;;;;;17.90;11.18;;;14.20;99.90;;;;;;5069413;28;20172;-69
2021/08/17 15:02:18;;;;;;;12.45;8.57;;;14.00;99.90;;;;;;5069384;28;20230;-68
2021/08/17 15:04:43;;;;;;;15.10;9.60;;;13.90;99.90;;;;;;5068438;28;20168;-68
2021/08/17 15:07:09;;;;;;;8.00;7.20;;;13.80;99.90;;;;;;5058723;28;20180;-68
2021/08/17 15:09:38;;;;;;;6.82;6.15;;;13.60;99.90;;;;;;5055581;28;20531;-68
2021/08/17 15:12:04;;;;;;;6.50;5.90;;;13.60;99.90;;;;;;5054702;28;20176;-68
2021/08/17 15:14:29;;;;;;;5.80;5.20;;;13.50;99.90;;;;;;5055825;28;20518;-68
2021/08/17 15:16:55;;;;;;;6.40;5.68;;;13.40;99.90;;;;;;5055948;28;20172;-69
2021/08/17 15:19:22;;;;;;;6.05;5.55;;;13.40;99.90;;;;;;5055727;28;20204;-68
2021/08/17 15:21:47;;;;;;;7.97;5.03;;;13.30;99.90;;;;;;5055448;28;20260;-68
2021/08/17 15:24:13;;;;;;;6.25;5.47;;;13.30;99.90;;;;;;5055820;28;20587;-69
2021/08/17 15:26:38;;;;;;;6.20;5.45;;;13.20;99.90;;;;;;5055465;28;20165;-69
2021/08/17 15:29:04;;;;;;;7.38;5.65;;;13.20;99.90;;;;;;5055346;28;20197;-69
2021/08/17 15:31:30;;;;;;;6.70;6.07;;;13.20;99.90;;;;;;5055670;28;20657;-68
2021/08/17 15:33:55;;;;;;;8.95;5.72;;;13.10;99.90;;;;;;5054339;28;20215;-69
2021/08/17 16:12:36;;;;;;;13.02;7.75;;;12.80;99.90;;;;;;5011097;28;20551;-69
2021/08/17 16:15:03;;;;;;;10.98;7.32;;;12.90;99.90;;;;;;5010936;28;20162;-69
2021/08/17 16:17:29;;;;;;;12.57;7.88;;;12.90;99.90;;;;;;5010974;28;20174;-69
2021/08/17 16:19:54;;;;;;;9.55;7.25;;;12.90;99.90;;;;;;5010367;28;20269;-68
